Brownsville/South Padre Island International Airport

Airport
ICAO code: 
KBRO
Summary
ICAO Region: 
NAM
Territory: 
Location: 
Brownsville/South Padre Island International Airport,
Coordinates: 
Aerial View: 
25° 54' 23.184" N, 97° 25' 54.546" W
Airport LOS: 
Parallel Runway Operation
Metar
Observation
KBRO 011253Z 00000KT 10SM CLR 14/13 A3010 RMK AO2 SLP193 T01440133
Station
Brownsville, Brownsville / South Padre Island International Airport
Date/Time
2021-12-01 12:53:00
Wind direction
Wind speed
00 kts
Lowest cloud amount
n/a
Temperature
14.4°C
Dew point
13.3°C
Humidity
93%
Weather condition
n/a

Description

Brownsville/South Padre Island International Airport is a public use airport located 7 km east of the central business district of Brownsville, a city in Cameron County, Texas.

Climatology

Humid “subtropical” climate (Köppen climate classification Cfa) - characterized by hot, humid summers and mild winters. Most rainfall occurs during summer and is often associated with thunderstorms and occasional tropical storms (hurricanes).

Runways

Designator Length Width Surface Rops
13L/31R 914 23 ASP Yes/Yes
17/35 1829 46 ASP Yes/Yes
13R/31L 2256 46 ASP Yes/Yes
Airport map: 
Aerial View: 

SKYbrary Partners:

Safety knowledge contributed by: